Time;durP1;ratioP1;P1;durP2;ratioP2;P2;SDS_P1;SDS_P2;PMS_P1;PMS_P2;Temp;Humidity;BMP_temperature;BMP_pressure;BME280_temperature;BME280_humidity;BME280_pressure;Samples;Min_cycle;Max_cycle;Signal;HPM_P1;HPM_P2
2024/03/15 00:01:02;;;;;;;;;;;11.50;99.90;;;;;;6127980;23;20533;-78
2024/03/15 00:03:29;;;;;;;;;;;11.50;99.90;;;;;;6103452;23;19937;-76
2024/03/15 00:06:00;;;;;;;;;;;11.40;99.90;;;;;;6103959;23;19941;-78
2024/03/15 00:08:26;;;;;;;;;;;11.40;99.90;;;;;;6105353;23;19924;-78
2024/03/15 00:10:52;;;;;;;;;;;11.50;99.90;;;;;;6105044;23;19929;-78
2024/03/15 00:13:17;;;;;;;;;;;11.40;99.90;;;;;;6102581;23;20263;-79
2024/03/15 00:15:43;;;;;;;;;;;11.40;99.90;;;;;;6104414;23;19996;-79
2024/03/15 00:18:09;;;;;;;;;;;11.40;99.90;;;;;;6080606;23;19924;-79
2024/03/15 00:20:34;;;;;;;;;;;11.40;99.90;;;;;;6128471;23;19952;-79
2024/03/15 00:23:00;;;;;;;;;;;11.40;99.90;;;;;;6105732;23;19917;-79
2024/03/15 00:25:26;;;;;;;;;;;11.40;99.90;;;;;;6104629;23;19972;-76
2024/03/15 00:27:54;;;;;;;;;;;11.40;99.90;;;;;;6127415;23;19981;-75
2024/03/15 00:30:23;;;;;;;;;;;11.30;99.90;;;;;;6102769;23;19970;-76
2024/03/15 00:32:49;;;;;;;;;;;11.30;99.90;;;;;;6127731;23;19913;-75
2024/03/15 00:35:14;;;;;;;;;;;11.30;99.90;;;;;;6126603;23;19908;-78
2024/03/15 00:37:40;;;;;;;;;;;11.30;99.90;;;;;;6102743;23;19913;-79
2024/03/15 00:40:12;;;;;;;;;;;11.20;99.90;;;;;;6127343;23;19913;-79
2024/03/15 00:42:37;;;;;;;;;;;11.30;99.90;;;;;;6104712;23;19916;-79
2024/03/15 00:45:05;;;;;;;;;;;11.30;99.90;;;;;;6104506;23;19984;-79
2024/03/15 00:47:31;;;;;;;;;;;11.30;99.90;;;;;;6105488;23;19913;-80
2024/03/15 00:50:00;;;;;;;;;;;11.30;99.90;;;;;;6104886;23;19913;-79
2024/03/15 00:52:26;;;;;;;;;;;11.30;99.90;;;;;;6129088;23;19908;-77
2024/03/15 00:54:51;;;;;;;;;;;11.40;99.90;;;;;;6103326;23;19913;-79
2024/03/15 00:57:17;;;;;;;;;;;11.40;99.90;;;;;;6103378;23;20490;-78
2024/03/15 00:59:44;;;;;;;;;;;11.50;99.90;;;;;;6125167;23;20158;-78
2024/03/15 01:02:09;;;;;;;;;;;11.50;99.90;;;;;;6101500;23;20231;-79
2024/03/15 01:04:35;;;;;;;;;;;11.60;99.90;;;;;;6125190;23;19996;-76
2024/03/15 01:07:05;;;;;;;;;;;11.60;99.90;;;;;;6076449;23;20209;-76
2024/03/15 01:09:30;;;;;;;;;;;11.70;99.90;;;;;;6100614;23;19923;-76
2024/03/15 01:11:57;;;;;;;;;;;11.70;99.90;;;;;;6105939;23;19940;-79
2024/03/15 01:14:25;;;;;;;;;;;11.70;99.90;;;;;;6106495;23;19909;-75
2024/03/15 01:16:51;;;;;;;;;;;11.80;99.90;;;;;;6101779;23;19920;-75
2024/03/15 01:19:16;;;;;;;;;;;11.80;99.90;;;;;;6126744;23;19913;-75
2024/03/15 01:21:42;;;;;;;;;;;11.80;99.90;;;;;;6126980;23;20247;-78
2024/03/15 01:24:12;;;;;;;;;;;11.80;99.90;;;;;;6104443;23;20270;-79
2024/03/15 01:26:41;;;;;;;;;;;11.80;99.90;;;;;;6130132;23;20011;-79
2024/03/15 01:29:07;;;;;;;;;;;11.80;99.90;;;;;;6126541;23;19909;-76
2024/03/15 01:31:33;;;;;;;;;;;11.80;99.90;;;;;;6104903;23;19909;-79
2024/03/15 01:33:59;;;;;;;;;;;11.80;99.90;;;;;;6103781;23;19913;-79
2024/03/15 01:36:25;;;;;;;;;;;11.80;99.90;;;;;;6125954;23;19916;-77
2024/03/15 01:38:54;;;;;;;;;;;11.80;99.90;;;;;;6102371;23;20028;-78
2024/03/15 01:41:20;;;;;;;;;;;11.80;99.90;;;;;;6101028;23;19913;-78
2024/03/15 01:43:54;;;;;;;;;;;11.80;99.90;;;;;;6101551;23;20201;-78
2024/03/15 01:46:23;;;;;;;;;;;11.80;99.90;;;;;;6125999;23;19913;-75
2024/03/15 01:48:49;;;;;;;;;;;11.90;99.90;;;;;;6101702;23;19912;-75
2024/03/15 01:51:14;;;;;;;;;;;11.80;99.90;;;;;;6101222;23;19992;-75
2024/03/15 01:53:40;;;;;;;;;;;11.80;99.90;;;;;;6124633;23;19920;-76
2024/03/15 01:56:06;;;;;;;;;;;11.80;99.90;;;;;;6124447;23;19984;-76
2024/03/15 01:58:36;;;;;;;;;;;11.80;99.90;;;;;;6125283;23;19913;-75
2024/03/15 02:01:02;;;;;;;;;;;11.80;99.90;;;;;;6125752;23;19912;-76
2024/03/15 02:03:29;;;;;;;;;;;11.80;99.90;;;;;;6124966;23;19923;-75
2024/03/15 02:05:58;;;;;;;;;;;11.80;99.90;;;;;;6101373;23;19940;-75
2024/03/15 02:08:24;;;;;;;;;;;11.80;99.90;;;;;;6125280;23;19967;-75
2024/03/15 02:10:50;;;;;;;;;;;11.80;99.90;;;;;;6126847;23;19909;-76
2024/03/15 02:13:15;;;;;;;;;;;11.80;99.90;;;;;;6079737;23;20287;-75
2024/03/15 02:15:42;;;;;;;;;;;11.90;99.90;;;;;;6128671;23;19964;-79
2024/03/15 02:18:08;;;;;;;;;;;11.90;99.90;;;;;;6103895;23;19913;-76
2024/03/15 02:20:38;;;;;;;;;;;11.90;99.90;;;;;;6103824;23;19977;-79
2024/03/15 02:23:03;;;;;;;;;;;11.90;99.90;;;;;;6079937;23;19925;-78
2024/03/15 02:25:30;;;;;;;;;;;11.90;99.90;;;;;;6127918;23;20227;-78
2024/03/15 02:27:55;;;;;;;;;;;11.90;99.90;;;;;;6127394;23;19912;-77
2024/03/15 02:30:21;;;;;;;;;;;11.90;99.90;;;;;;6127903;23;19979;-80
2024/03/15 02:32:47;;;;;;;;;;;11.90;99.90;;;;;;6079727;23;19921;-78
2024/03/15 02:35:12;;;;;;;;;;;12.00;99.90;;;;;;6103828;23;19913;-75
2024/03/15 02:37:38;;;;;;;;;;;11.90;99.90;;;;;;6127116;23;19909;-79
2024/03/15 02:40:06;;;;;;;;;;;11.90;99.90;;;;;;6130002;23;19913;-79
2024/03/15 02:42:32;;;;;;;;;;;11.90;99.90;;;;;;6128424;23;19916;-78
2024/03/15 02:45:02;;;;;;;;;;;11.90;99.90;;;;;;6104423;23;20218;-75
2024/03/15 02:47:48;;;;;;;;;;;11.90;99.90;;;;;;6103177;23;19923;-78
2024/03/15 02:50:14;;;;;;;;;;;11.90;99.90;;;;;;6104306;23;19912;-75
2024/03/15 02:52:39;;;;;;;;;;;11.90;99.90;;;;;;6102830;23;20263;-75
2024/03/15 02:55:05;;;;;;;;;;;11.90;99.90;;;;;;6127768;23;19936;-78
2024/03/15 02:57:31;;;;;;;;;;;11.90;99.90;;;;;;6128384;23;20218;-79
2024/03/15 02:59:57;;;;;;;;;;;11.90;99.90;;;;;;6128363;23;20318;-79
2024/03/15 03:02:25;;;;;;;;;;;11.90;99.90;;;;;;6128587;23;20302;-79
2024/03/15 03:04:51;;;;;;;;;;;11.90;99.90;;;;;;6128135;23;19913;-79
2024/03/15 03:07:17;;;;;;;;;;;11.90;99.90;;;;;;6127586;23;19993;-76
2024/03/15 03:09:46;;;;;;;;;;;11.90;99.90;;;;;;6103712;23;19959;-79
2024/03/15 03:12:15;;;;;;;;;;;11.90;99.90;;;;;;6103578;23;20299;-76
2024/03/15 03:14:45;;;;;;;;;;;11.80;99.90;;;;;;6127318;23;19980;-76
2024/03/15 03:17:16;;;;;;;;;;;11.80;99.90;;;;;;6104246;23;19913;-76
2024/03/15 03:19:42;;;;;;;;;;;11.80;99.90;;;;;;6103288;23;19963;-75
2024/03/15 03:22:08;;;;;;;;;;;11.80;99.90;;;;;;6102534;23;20385;-76
2024/03/15 03:24:33;;;;;;;;;;;11.80;99.90;;;;;;6128088;23;19909;-78
2024/03/15 03:26:59;;;;;;;;;;;11.80;99.90;;;;;;6128239;23;19909;-79
2024/03/15 03:29:25;;;;;;;;;;;11.80;99.90;;;;;;6129594;23;20581;-79
2024/03/15 03:31:51;;;;;;;;;;;11.80;99.90;;;;;;6103725;23;19913;-79
2024/03/15 03:34:19;;;;;;;;;;;11.80;99.90;;;;;;6103495;23;19909;-79
2024/03/15 03:36:45;;;;;;;;;;;11.80;99.90;;;;;;6103376;23;19920;-78
2024/03/15 03:39:11;;;;;;;;;;;11.80;99.90;;;;;;6128803;23;19909;-78
2024/03/15 03:41:37;;;;;;;;;;;11.80;99.90;;;;;;6129015;23;19917;-78
2024/03/15 03:44:03;;;;;;;;;;;11.80;99.90;;;;;;6103155;23;19909;-76
2024/03/15 03:46:29;;;;;;;;;;;11.80;99.90;;;;;;6102618;23;20333;-76
2024/03/15 03:48:54;;;;;;;;;;;11.80;99.90;;;;;;6128819;23;19913;-80
2024/03/15 03:51:22;;;;;;;;;;;11.80;99.90;;;;;;6104732;23;19916;-76
2024/03/15 03:53:48;;;;;;;;;;;11.80;99.90;;;;;;6103287;23;19912;-77
2024/03/15 03:56:17;;;;;;;;;;;11.80;99.90;;;;;;6127270;23;19917;-76
2024/03/15 03:58:44;;;;;;;;;;;11.80;99.90;;;;;;6103889;23;19964;-79
2024/03/15 04:01:10;;;;;;;;;;;11.80;99.90;;;;;;6079599;23;19909;-76
2024/03/15 04:03:36;;;;;;;;;;;11.70;99.90;;;;;;6127375;23;19913;-79
2024/03/15 04:06:05;;;;;;;;;;;11.80;99.90;;;;;;6104211;23;20536;-79
2024/03/15 04:08:34;;;;;;;;;;;11.80;99.90;;;;;;6103390;23;19908;-75
2024/03/15 04:11:01;;;;;;;;;;;11.80;99.90;;;;;;6102806;23;19988;-76
2024/03/15 04:13:26;;;;;;;;;;;11.80;99.90;;;;;;6127216;23;19920;-76
2024/03/15 04:15:54;;;;;;;;;;;11.80;99.90;;;;;;6102604;23;19909;-76
2024/03/15 04:18:20;;;;;;;;;;;11.80;99.90;;;;;;6126077;23;19967;-76
2024/03/15 04:20:48;;;;;;;;;;;11.80;99.90;;;;;;6128056;23;19944;-76
2024/03/15 04:23:20;;;;;;;;;;;11.80;99.90;;;;;;6100741;23;19936;-76
2024/03/15 04:25:47;;;;;;;;;;;11.70;99.90;;;;;;6078421;23;19916;-76
2024/03/15 04:28:13;;;;;;;;;;;11.70;99.90;;;;;;6078579;23;19968;-75
2024/03/15 04:30:40;;;;;;;;;;;11.70;99.90;;;;;;6100909;23;19913;-76
2024/03/15 04:33:06;;;;;;;;;;;11.70;99.90;;;;;;6123372;23;19913;-76
2024/03/15 04:35:31;;;;;;;;;;;11.70;99.90;;;;;;6101199;23;19913;-76
2024/03/15 04:37:57;;;;;;;;;;;11.60;99.90;;;;;;6125662;23;19917;-76
2024/03/15 04:40:25;;;;;;;;;;;11.60;99.90;;;;;;6102823;23;20548;-77
2024/03/15 04:42:51;;;;;;;;;;;11.50;99.90;;;;;;6126561;23;19917;-76
2024/03/15 04:45:17;;;;;;;;;;;11.50;99.90;;;;;;6126230;23;20333;-76
2024/03/15 04:47:44;;;;;;;;;;;11.50;99.90;;;;;;6102793;23;19908;-76
2024/03/15 04:50:09;;;;;;;;;;;11.50;99.90;;;;;;6127325;23;19919;-76
2024/03/15 04:52:41;;;;;;;;;;;11.50;99.90;;;;;;6150616;23;19980;-76
2024/03/15 04:55:08;;;;;;;;;;;11.50;99.90;;;;;;6078597;23;20033;-75
2024/03/15 04:57:36;;;;;;;;;;;11.50;99.90;;;;;;6102004;23;19917;-76
2024/03/15 05:00:17;;;;;;;;;;;11.50;99.90;;;;;;6127449;23;19963;-76
2024/03/15 05:02:43;;;;;;;;;;;11.50;99.90;;;;;;6126404;23;20032;-76
2024/03/15 05:05:09;;;;;;;;;;;11.50;99.90;;;;;;6101247;23;20206;-76
2024/03/15 05:07:35;;;;;;;;;;;11.50;99.90;;;;;;6149138;23;19912;-76
2024/03/15 05:10:00;;;;;;;;;;;11.50;99.90;;;;;;6125293;23;19991;-76
2024/03/15 05:12:26;;;;;;;;;;;11.40;99.90;;;;;;6125159;23;19920;-76
2024/03/15 05:14:51;;;;;;;;;;;11.40;99.90;;;;;;6102281;23;19948;-76
2024/03/15 05:17:17;;;;;;;;;;;11.40;99.90;;;;;;6150801;23;20354;-76
2024/03/15 05:19:43;;;;;;;;;;;11.40;99.90;;;;;;6101469;23;19963;-75
2024/03/15 05:22:08;;;;;;;;;;;11.40;99.90;;;;;;6100809;23;19921;-76
2024/03/15 05:24:34;;;;;;;;;;;11.40;99.90;;;;;;6125920;23;19909;-76
2024/03/15 05:27:00;;;;;;;;;;;11.40;99.90;;;;;;6076916;23;19913;-76
2024/03/15 05:29:25;;;;;;;;;;;11.40;99.90;;;;;;6127099;23;19909;-75
2024/03/15 05:31:51;;;;;;;;;;;11.40;99.90;;;;;;6125355;23;19913;-76
2024/03/15 05:34:17;;;;;;;;;;;11.40;99.90;;;;;;6126080;23;20349;-76
2024/03/15 05:36:43;;;;;;;;;;;11.40;99.90;;;;;;6101674;23;19936;-77
2024/03/15 05:39:10;;;;;;;;;;;11.40;99.90;;;;;;6126216;23;19913;-75
2024/03/15 05:41:39;;;;;;;;;;;11.40;99.90;;;;;;6101913;23;19924;-74
2024/03/15 05:44:05;;;;;;;;;;;11.40;99.90;;;;;;6126660;23;19909;-76
2024/03/15 05:46:34;;;;;;;;;;;11.40;99.90;;;;;;6080879;23;19932;-76
2024/03/15 05:49:00;;;;;;;;;;;11.40;99.90;;;;;;6105646;23;19963;-76
2024/03/15 05:51:26;;;;;;;;;;;11.40;99.90;;;;;;6129376;23;19909;-76
2024/03/15 05:53:51;;;;;;;;;;;11.40;99.90;;;;;;6104994;23;19909;-76
2024/03/15 05:56:18;;;;;;;;;;;11.40;99.90;;;;;;6103593;23;19917;-76
2024/03/15 05:58:44;;;;;;;;;;;11.40;99.90;;;;;;6104558;23;19909;-76
2024/03/15 06:01:11;;;;;;;;;;;11.40;99.90;;;;;;6128074;23;20329;-76
2024/03/15 06:03:37;;;;;;;;;;;11.30;99.90;;;;;;6129057;23;20006;-77
2024/03/15 06:06:08;;;;;;;;;;;11.40;99.90;;;;;;6104698;23;19919;-76
2024/03/15 06:08:34;;;;;;;;;;;11.40;99.90;;;;;;6128829;23;20418;-76
2024/03/15 06:11:00;;;;;;;;;;;11.40;99.90;;;;;;6104778;23;19972;-76
2024/03/15 06:13:26;;;;;;;;;;;11.40;99.90;;;;;;6104374;23;19924;-77
2024/03/15 06:15:51;;;;;;;;;;;11.40;99.90;;;;;;6153139;23;19909;-74
2024/03/15 06:18:17;;;;;;;;;;;11.40;99.90;;;;;;6128238;23;20333;-78
2024/03/15 06:20:42;;;;;;;;;;;11.40;99.90;;;;;;6129323;23;19941;-77
2024/03/15 06:23:08;;;;;;;;;;;11.40;99.90;;;;;;6105071;23;19913;-76
2024/03/15 06:25:34;;;;;;;;;;;11.40;99.90;;;;;;6128842;23;20329;-75
2024/03/15 06:28:06;;;;;;;;;;;11.40;99.90;;;;;;6128848;23;19977;-77
2024/03/15 06:30:34;;;;;;;;;;;11.40;99.90;;;;;;6104804;23;19976;-75
2024/03/15 06:33:07;;;;;;;;;;;11.40;99.90;;;;;;6080763;23;20483;-76
2024/03/15 06:35:33;;;;;;;;;;;11.40;99.90;;;;;;6129299;23;20266;-75
2024/03/15 06:41:07;;;;;;;;;;;11.50;99.90;;;;;;6133420;23;20325;-76
2024/03/15 06:43:40;;;;;;;;;;;11.50;99.90;;;;;;6109391;23;19960;-77
2024/03/15 06:46:23;;;;;;;;;;;11.50;99.90;;;;;;6130817;23;19909;-76
2024/03/15 06:49:02;;;;;;;;;;;11.60;99.90;;;;;;6128389;23;19913;-76
2024/03/15 06:54:14;;;;;;;;;;;11.80;99.90;;;;;;6129660;23;19913;-77
2024/03/15 06:56:41;;;;;;;;;;;11.80;99.90;;;;;;6081202;23;19909;-75
2024/03/15 06:59:09;;;;;;;;;;;11.90;99.90;;;;;;6127872;23;19909;-76
2024/03/15 07:01:35;;;;;;;;;;;12.00;99.90;;;;;;6127636;23;20231;-76
2024/03/15 07:04:01;;;;;;;;;;;12.10;99.90;;;;;;6128360;23;19908;-76
2024/03/15 07:06:27;;;;;;;;;;;12.20;99.90;;;;;;6103356;23;19913;-76
2024/03/15 07:08:54;;;;;;;;;;;12.30;99.90;;;;;;6127831;23;19913;-76
2024/03/15 07:11:29;;;;;;;;;;;12.40;99.90;;;;;;6127551;23;19919;-77
2024/03/15 07:13:58;;;;;;;;;;;12.50;99.90;;;;;;6103452;23;20337;-77
2024/03/15 07:16:28;;;;;;;;;;;12.50;99.90;;;;;;6127780;23;19917;-76
2024/03/15 07:18:55;;;;;;;;;;;12.60;99.90;;;;;;6128365;23;19975;-76
2024/03/15 07:21:24;;;;;;;;;;;12.70;99.90;;;;;;6126691;23;19921;-76
2024/03/15 07:23:50;;;;;;;;;;;12.80;99.90;;;;;;6126175;23;19924;-76
2024/03/15 07:26:16;;;;;;;;;;;12.80;99.90;;;;;;6101938;23;20301;-76
2024/03/15 07:28:44;;;;;;;;;;;12.90;99.90;;;;;;6079005;23;19981;-76
2024/03/15 07:31:09;;;;;;;;;;;12.90;99.90;;;;;;6150878;23;19909;-76
2024/03/15 07:33:37;;;;;;;;;;;13.00;99.90;;;;;;6101894;23;19936;-76
2024/03/15 07:36:07;;;;;;;;;;;13.00;99.90;;;;;;6126133;23;19913;-76
2024/03/15 07:38:34;;;;;;;;;;;13.00;99.90;;;;;;6078669;23;20035;-76
2024/03/15 07:41:00;;;;;;;;;;;13.10;99.90;;;;;;6126416;23;19917;-77
2024/03/15 07:43:26;;;;;;;;;;;13.10;99.90;;;;;;6077839;23;19981;-78
2024/03/15 07:45:52;;;;;;;;;;;13.10;99.90;;;;;;6127067;23;19909;-76
2024/03/15 07:48:18;;;;;;;;;;;13.20;99.90;;;;;;6102481;23;19917;-77
2024/03/15 07:50:43;;;;;;;;;;;13.20;99.90;;;;;;6102829;23;19912;-77
2024/03/15 07:53:09;;;;;;;;;;;13.30;99.90;;;;;;6101969;23;20325;-77
2024/03/15 07:55:35;;;;;;;;;;;13.30;99.90;;;;;;6127143;23;19917;-77
2024/03/15 07:58:01;;;;;;;;;;;13.40;99.90;;;;;;6126874;23;19910;-77
2024/03/15 08:00:27;;;;;;;;;;;13.40;99.90;;;;;;6102456;23;19979;-77
2024/03/15 08:02:54;;;;;;;;;;;13.60;99.90;;;;;;6101179;23;19929;-76
2024/03/15 08:05:23;;;;;;;;;;;13.60;99.90;;;;;;6125641;23;19939;-76
2024/03/15 08:07:50;;;;;;;;;;;13.70;99.90;;;;;;6126868;23;19916;-76
2024/03/15 08:10:17;;;;;;;;;;;13.80;99.90;;;;;;6125376;23;19913;-76
2024/03/15 08:12:42;;;;;;;;;;;14.00;99.90;;;;;;6126841;23;20562;-77
2024/03/15 08:15:09;;;;;;;;;;;14.00;99.90;;;;;;6127152;23;19937;-76
2024/03/15 08:17:35;;;;;;;;;;;14.10;99.90;;;;;;6102559;23;19955;-76
2024/03/15 08:20:10;;;;;;;;;;;14.20;99.90;;;;;;6102219;23;19960;-76
2024/03/15 08:22:37;;;;;;;;;;;14.30;99.90;;;;;;6126217;23;19947;-77
2024/03/15 08:25:04;;;;;;;;;;;14.30;99.90;;;;;;6126279;23;19940;-77
2024/03/15 08:27:31;;;;;;;;;;;14.50;99.90;;;;;;6102432;23;19976;-77
2024/03/15 08:29:56;;;;;;;;;;;14.60;99.90;;;;;;6101820;23;19913;-77
2024/03/15 08:32:23;;;;;;;;;;;14.70;99.90;;;;;;6125042;23;19971;-77
2024/03/15 08:34:49;;;;;;;;;;;14.80;99.90;;;;;;6126014;23;19912;-77
2024/03/15 08:37:16;;;;;;;;;;;14.80;99.90;;;;;;6151282;23;19920;-76
2024/03/15 08:39:42;;;;;;;;;;;14.70;99.90;;;;;;6126729;23;19968;-78
2024/03/15 08:42:07;;;;;;;;;;;14.70;99.90;;;;;;6127030;23;19913;-76
2024/03/15 08:44:33;;;;;;;;;;;14.70;99.90;;;;;;6126449;23;19909;-76
2024/03/15 08:46:59;;;;;;;;;;;14.70;99.90;;;;;;6102026;23;19924;-76
2024/03/15 08:49:26;;;;;;;;;;;14.70;99.90;;;;;;6126995;23;19913;-76
2024/03/15 08:51:52;;;;;;;;;;;14.60;99.90;;;;;;6126617;23;19916;-77
2024/03/15 08:54:18;;;;;;;;;;;14.70;99.90;;;;;;6125727;23;19963;-77
2024/03/15 08:56:44;;;;;;;;;;;14.60;99.90;;;;;;6102336;23;19909;-77
2024/03/15 08:59:10;;;;;;;;;;;14.60;99.90;;;;;;6077669;23;19913;-77
2024/03/15 09:01:37;;;;;;;;;;;14.70;99.90;;;;;;6125799;23;19916;-77
2024/03/15 09:04:07;;;;;;;;;;;14.70;99.90;;;;;;6126235;23;20358;-77
2024/03/15 09:06:34;;;;;;;;;;;14.60;99.90;;;;;;6126774;23;19976;-76
2024/03/15 09:09:13;;;;;;;;;;;14.60;99.90;;;;;;6101071;23;19913;-77
2024/03/15 09:11:39;;;;;;;;;;;14.70;99.90;;;;;;6103106;23;19988;-77
2024/03/15 09:14:06;;;;;;;;;;;14.80;99.90;;;;;;6075942;23;19912;-77
2024/03/15 09:16:35;;;;;;;;;;;14.80;99.90;;;;;;6099890;23;19913;-76
2024/03/15 09:19:03;;;;;;;;;;;14.90;99.90;;;;;;6101825;23;19948;-76
2024/03/15 09:21:32;;;;;;;;;;;15.00;99.90;;;;;;6100716;23;19921;-78
2024/03/15 09:24:00;;;;;;;;;;;15.00;99.90;;;;;;6125609;23;19976;-77
2024/03/15 09:26:27;;;;;;;;;;;15.00;99.90;;;;;;6126848;23;19912;-77
2024/03/15 09:28:55;;;;;;;;;;;15.10;99.90;;;;;;6101357;23;19924;-77
2024/03/15 09:31:30;;;;;;;;;;;15.10;99.90;;;;;;6126559;23;20246;-77
2024/03/15 09:33:57;;;;;;;;;;;15.10;99.90;;;;;;6125198;23;19909;-77
2024/03/15 09:36:33;;;;;;;;;;;15.10;99.90;;;;;;6101418;23;19983;-77
2024/03/15 09:38:59;;;;;;;;;;;15.10;99.90;;;;;;6126272;23;19913;-77
2024/03/15 09:41:25;;;;;;;;;;;15.10;99.90;;;;;;6125431;23;19928;-77
2024/03/15 09:43:52;;;;;;;;;;;15.10;99.90;;;;;;6100782;23;19917;-77
2024/03/15 09:46:21;;;;;;;;;;;15.20;99.90;;;;;;6126084;23;20382;-77
2024/03/15 09:48:48;;;;;;;;;;;15.20;99.90;;;;;;6125714;23;19924;-77
2024/03/15 09:51:14;;;;;;;;;;;15.30;99.90;;;;;;6101284;23;20032;-78
2024/03/15 09:53:40;;;;;;;;;;;15.30;99.90;;;;;;6101254;23;19909;-78
2024/03/15 09:56:15;;;;;;;;;;;15.40;99.90;;;;;;6125720;23;19995;-77
2024/03/15 09:58:41;;;;;;;;;;;15.40;99.90;;;;;;6101246;23;19953;-77
2024/03/15 10:01:07;;;;;;;;;;;15.40;99.90;;;;;;6125409;23;19909;-77
2024/03/15 10:03:32;;;;;;;;;;;15.40;99.90;;;;;;6101030;23;19912;-77
2024/03/15 10:06:01;;;;;;;;;;;15.40;99.90;;;;;;6077196;23;19940;-77
2024/03/15 10:08:27;;;;;;;;;;;15.50;99.90;;;;;;6100413;23;20019;-77
2024/03/15 10:10:53;;;;;;;;;;;15.50;99.90;;;;;;6126961;23;19909;-79
2024/03/15 10:13:20;;;;;;;;;;;15.50;99.90;;;;;;6078468;23;19909;-79
2024/03/15 10:15:46;;;;;;;;;;;15.50;99.90;;;;;;6127758;23;19917;-79
2024/03/15 10:18:12;;;;;;;;;;;15.70;99.90;;;;;;6127718;23;19951;-80
2024/03/15 10:20:38;;;;;;;;;;;15.70;99.90;;;;;;6103288;23;20033;-80
2024/03/15 10:23:09;;;;;;;;;;;15.70;99.90;;;;;;6079603;23;19947;-79
2024/03/15 10:25:42;;;;;;;;;;;15.70;99.90;;;;;;6103915;23;20299;-79
2024/03/15 10:28:10;;;;;;;;;;;15.70;99.90;;;;;;6152355;23;19948;-79
2024/03/15 10:30:36;;;;;;;;;;;15.60;99.90;;;;;;6127739;23;20287;-79
2024/03/15 10:33:03;;;;;;;;;;;15.50;99.90;;;;;;6079650;23;19937;-79
2024/03/15 10:35:29;;;;;;;;;;;15.40;99.90;;;;;;6081030;23;19964;-78
2024/03/15 10:37:54;;;;;;;;;;;15.30;99.90;;;;;;6128753;23;19913;-77
2024/03/15 10:40:24;;;;;;;;;;;15.20;99.90;;;;;;6104438;23;19917;-77
2024/03/15 10:42:51;;;;;;;;;;;15.10;99.90;;;;;;6105435;23;19916;-79
2024/03/15 10:45:17;;;;;;;;;;;15.10;99.90;;;;;;6104043;23;19936;-77
2024/03/15 10:47:43;;;;;;;;;;;15.10;99.90;;;;;;6126925;23;19909;-80
2024/03/15 10:50:16;;;;;;;;;;;15.00;99.90;;;;;;6128494;23;19920;-79
2024/03/15 10:52:43;;;;;;;;;;;14.90;99.90;;;;;;6104303;23;19909;-79
2024/03/15 10:55:12;;;;;;;;;;;14.90;99.90;;;;;;6130247;23;20262;-79
2024/03/15 10:57:38;;;;;;;;;;;14.90;99.90;;;;;;6128416;23;19913;-79
2024/03/15 11:00:14;;;;;;;;;;;14.90;99.90;;;;;;6128751;23;19909;-77
2024/03/15 11:02:46;;;;;;;;;;;14.90;99.90;;;;;;6131376;23;19943;-78
2024/03/15 11:05:18;;;;;;;;;;;14.90;99.90;;;;;;6127934;23;19941;-78
2024/03/15 11:07:45;;;;;;;;;;;14.90;99.90;;;;;;6127994;23;19908;-78
2024/03/15 11:10:13;;;;;;;;;;;15.00;99.90;;;;;;6131253;23;20630;-78
2024/03/15 11:12:39;;;;;;;;;;;14.90;99.90;;;;;;6104339;23;19924;-78
2024/03/15 11:15:05;;;;;;;;;;;15.00;99.90;;;;;;6129435;23;19913;-79
2024/03/15 11:17:31;;;;;;;;;;;15.00;99.90;;;;;;6079059;23;19909;-78
2024/03/15 11:20:04;;;;;;;;;;;15.00;99.90;;;;;;6127629;23;19959;-78
2024/03/15 11:22:55;;;;;;;;;;;15.00;99.90;;;;;;6127719;23;19924;-78
2024/03/15 11:25:21;;;;;;;;;;;15.00;99.90;;;;;;6128530;23;20229;-78
2024/03/15 11:27:55;;;;;;;;;;;15.10;99.90;;;;;;6129395;23;19983;-79
2024/03/15 11:30:20;;;;;;;;;;;15.10;99.90;;;;;;6130254;23;19913;-79
2024/03/15 11:32:46;;;;;;;;;;;15.10;99.90;;;;;;6129263;23;20315;-78
2024/03/15 11:35:12;;;;;;;;;;;15.10;99.90;;;;;;6105591;23;19944;-78
2024/03/15 11:37:41;;;;;;;;;;;15.00;99.90;;;;;;6104362;23;19912;-78
2024/03/15 11:40:07;;;;;;;;;;;15.00;99.90;;;;;;6077322;23;19919;-78
2024/03/15 11:42:32;;;;;;;;;;;15.00;99.90;;;;;;6125255;23;19940;-78
2024/03/15 11:44:58;;;;;;;;;;;15.00;99.90;;;;;;6127779;23;20211;-78
2024/03/15 11:47:24;;;;;;;;;;;15.00;99.90;;;;;;6103365;23;19957;-78
2024/03/15 11:49:54;;;;;;;;;;;15.00;99.90;;;;;;6129165;23;19920;-78
2024/03/15 11:52:20;;;;;;;;;;;15.00;99.90;;;;;;6127880;23;20320;-78
2024/03/15 11:54:50;;;;;;;;;;;15.00;99.90;;;;;;6127282;23;19976;-78
2024/03/15 11:57:16;;;;;;;;;;;15.00;99.90;;;;;;6126465;23;20230;-78
2024/03/15 11:59:42;;;;;;;;;;;15.10;99.90;;;;;;6101697;23;19979;-78
2024/03/15 12:02:08;;;;;;;;;;;15.10;99.90;;;;;;6104235;23;20329;-78
2024/03/15 12:04:36;;;;;;;;;;;15.30;99.90;;;;;;6128298;23;19913;-78
2024/03/15 12:07:01;;;;;;;;;;;15.40;99.90;;;;;;6127162;23;19913;-78
2024/03/15 12:09:27;;;;;;;;;;;15.70;99.90;;;;;;6103590;23;19940;-75
2024/03/15 12:11:54;;;;;;;;;;;15.90;99.90;;;;;;6102507;23;19913;-75
2024/03/15 12:14:20;;;;;;;;;;;16.10;99.90;;;;;;6102236;23;19967;-75
2024/03/15 12:16:46;;;;;;;;;;;16.30;99.90;;;;;;6078864;23;19960;-75
2024/03/15 12:19:14;;;;;;;;;;;16.30;99.90;;;;;;6101969;23;19913;-75
2024/03/15 12:21:40;;;;;;;;;;;16.20;99.90;;;;;;6101896;23;19976;-74
2024/03/15 12:24:07;;;;;;;;;;;16.00;99.90;;;;;;6126705;23;20294;-74
2024/03/15 12:26:33;;;;;;;;;;;15.90;99.90;;;;;;6126714;23;20215;-74
2024/03/15 12:28:58;;;;;;;;;;;15.80;99.90;;;;;;6126732;23;19917;-74
2024/03/15 12:31:24;;;;;;;;;;;15.80;99.90;;;;;;6126521;23;19912;-74
2024/03/15 12:33:59;;;;;;;;;;;15.80;99.90;;;;;;6127216;23;19924;-75
2024/03/15 12:36:27;;;;;;;;;;;15.80;99.90;;;;;;6126652;23;19909;-74
2024/03/15 12:38:53;;;;;;;;;;;15.80;99.90;;;;;;6150573;23;20306;-74
2024/03/15 12:41:19;;;;;;;;;;;15.80;99.90;;;;;;6126058;23;19909;-75
2024/03/15 12:43:45;;;;;;;;;;;15.80;99.90;;;;;;6150849;23;19923;-74
2024/03/15 12:46:10;;;;;;;;;;;15.80;99.90;;;;;;6102418;23;19909;-75
2024/03/15 12:48:36;;;;;;;;;;;15.80;99.90;;;;;;6126717;23;20514;-75
2024/03/15 12:51:02;;;;;;;;;;;15.70;99.90;;;;;;6102341;23;19913;-75
2024/03/15 12:53:27;;;;;;;;;;;15.70;99.90;;;;;;6102473;23;19979;-75
2024/03/15 12:55:53;;;;;;;;;;;15.70;99.90;;;;;;6126430;23;19956;-75
2024/03/15 12:58:19;;;;;;;;;;;15.70;99.90;;;;;;6126236;23;19909;-75
2024/03/15 13:00:45;;;;;;;;;;;15.70;99.90;;;;;;6101463;23;19912;-75
2024/03/15 13:03:10;;;;;;;;;;;15.70;99.90;;;;;;6125716;23;19916;-75
2024/03/15 13:05:38;;;;;;;;;;;15.70;99.90;;;;;;6101955;23;19908;-75
2024/03/15 13:08:05;;;;;;;;;;;15.70;99.90;;;;;;6127037;23;19924;-75
2024/03/15 13:10:31;;;;;;;;;;;15.80;99.90;;;;;;6127061;23;19913;-74
2024/03/15 13:12:56;;;;;;;;;;;15.80;99.90;;;;;;6078252;23;19971;-75
2024/03/15 13:15:22;;;;;;;;;;;15.90;99.90;;;;;;6126155;23;19939;-76
2024/03/15 13:17:55;;;;;;;;;;;15.90;99.90;;;;;;6102038;23;19955;-75
2024/03/15 13:20:37;;;;;;;;;;;15.90;99.90;;;;;;6126438;23;19928;-74
2024/03/15 13:23:05;;;;;;;;;;;15.90;99.90;;;;;;6126742;23;19947;-74
2024/03/15 13:25:30;;;;;;;;;;;15.90;99.90;;;;;;6126876;23;20492;-74
2024/03/15 13:27:57;;;;;;;;;;;15.80;99.90;;;;;;6126525;23;19913;-74
2024/03/15 13:30:23;;;;;;;;;;;15.80;99.90;;;;;;6125989;23;19920;-75
2024/03/15 13:32:54;;;;;;;;;;;15.80;99.90;;;;;;6125782;23;19921;-74
2024/03/15 13:35:20;;;;;;;;;;;15.90;99.90;;;;;;6102409;23;20295;-74
2024/03/15 13:37:50;;;;;;;;;;;16.00;99.90;;;;;;6126800;23;19963;-74
2024/03/15 13:40:16;;;;;;;;;;;16.00;99.90;;;;;;6103230;23;19920;-74
2024/03/15 13:42:42;;;;;;;;;;;16.20;99.90;;;;;;6126036;23;20254;-74
2024/03/15 13:45:12;;;;;;;;;;;16.50;99.90;;;;;;6101821;23;19913;-75
2024/03/15 13:47:47;;;;;;;;;;;16.60;99.90;;;;;;6104373;23;19913;-74
2024/03/15 13:50:19;;;;;;;;;;;16.70;99.90;;;;;;6126189;23;19913;-75
2024/03/15 13:52:48;;;;;;;;;;;17.00;99.90;;;;;;6125632;23;19920;-74
2024/03/15 13:55:15;;;;;;;;;;;17.00;99.90;;;;;;6125921;23;19943;-75
2024/03/15 13:57:41;;;;;;;;;;;17.10;99.90;;;;;;6123606;23;19940;-74
2024/03/15 14:02:54;;;;;;;;;;;16.90;99.90;;;;;;6128686;23;20361;-74
2024/03/15 14:05:20;;;;;;;;;;;17.00;99.90;;;;;;6099970;23;19915;-74
2024/03/15 14:07:45;;;;;;;;;;;17.10;99.90;;;;;;6127334;23;19984;-74
2024/03/15 14:10:18;;;;;;;;;;;17.30;99.90;;;;;;6126778;23;19912;-74
2024/03/15 14:12:44;;;;;;;;;;;17.20;99.90;;;;;;6105090;23;19909;-75
2024/03/15 14:15:11;;;;;;;;;;;17.20;99.90;;;;;;6102915;23;20027;-74
2024/03/15 14:17:37;;;;;;;;;;;17.20;99.90;;;;;;6079653;23;19917;-74
2024/03/15 14:20:06;;;;;;;;;;;17.50;99.90;;;;;;6125733;23;19988;-74
2024/03/15 14:22:44;;;;;;;;;;;17.50;99.90;;;;;;6125311;23;19928;-74
2024/03/15 14:25:15;;;;;;;;;;;17.70;99.90;;;;;;6127032;23;19912;-74